sensor_id;sensor_type;location;lat;lon;timestamp;temperature;humidity
78619;DHT22;67941;52.506;5.470;2024-01-16T00:00:20;0.60;85.30
78619;DHT22;67941;52.506;5.470;2024-01-16T00:02:49;0.60;85.20
78619;DHT22;67941;52.506;5.470;2024-01-16T00:05:17;0.60;85.20
78619;DHT22;67941;52.506;5.470;2024-01-16T00:07:46;0.60;85.30
78619;DHT22;67941;52.506;5.470;2024-01-16T00:10:15;0.60;85.50
78619;DHT22;67941;52.506;5.470;2024-01-16T00:12:44;0.60;85.50
78619;DHT22;67941;52.506;5.470;2024-01-16T00:15:13;0.70;85.60
78619;DHT22;67941;52.506;5.470;2024-01-16T00:17:45;0.70;85.50
78619;DHT22;67941;52.506;5.470;2024-01-16T00:20:32;0.70;85.30
78619;DHT22;67941;52.506;5.470;2024-01-16T00:23:01;0.70;85.30
78619;DHT22;67941;52.506;5.470;2024-01-16T00:25:30;0.60;85.10
78619;DHT22;67941;52.506;5.470;2024-01-16T00:27:59;0.60;85.10
78619;DHT22;67941;52.506;5.470;2024-01-16T00:30:28;0.70;85.10
78619;DHT22;67941;52.506;5.470;2024-01-16T00:33:00;0.60;85.00
78619;DHT22;67941;52.506;5.470;2024-01-16T00:35:29;0.60;85.00
78619;DHT22;67941;52.506;5.470;2024-01-16T00:37:58;0.60;84.90
78619;DHT22;67941;52.506;5.470;2024-01-16T00:40:26;0.60;84.90
78619;DHT22;67941;52.506;5.470;2024-01-16T00:42:56;0.60;84.90
78619;DHT22;67941;52.506;5.470;2024-01-16T00:45:25;0.60;84.80
78619;DHT22;67941;52.506;5.470;2024-01-16T00:47:53;0.60;84.70
78619;DHT22;67941;52.506;5.470;2024-01-16T00:50:25;0.60;84.70
78619;DHT22;67941;52.506;5.470;2024-01-16T00:52:55;0.60;84.70
78619;DHT22;67941;52.506;5.470;2024-01-16T00:55:24;0.60;84.70
78619;DHT22;67941;52.506;5.470;2024-01-16T00:57:53;0.60;84.70
78619;DHT22;67941;52.506;5.470;2024-01-16T01:00:22;0.60;84.60
78619;DHT22;67941;52.506;5.470;2024-01-16T01:02:51;0.60;84.60
78619;DHT22;67941;52.506;5.470;2024-01-16T01:05:20;0.60;84.70
78619;DHT22;67941;52.506;5.470;2024-01-16T01:07:57;0.60;84.70
78619;DHT22;67941;52.506;5.470;2024-01-16T01:10:26;0.60;84.80
78619;DHT22;67941;52.506;5.470;2024-01-16T01:12:54;0.60;84.80
78619;DHT22;67941;52.506;5.470;2024-01-16T01:15:23;0.60;84.70
78619;DHT22;67941;52.506;5.470;2024-01-16T01:17:52;0.60;84.60
78619;DHT22;67941;52.506;5.470;2024-01-16T01:20:21;0.60;84.50
78619;DHT22;67941;52.506;5.470;2024-01-16T01:22:50;0.60;84.50
78619;DHT22;67941;52.506;5.470;2024-01-16T01:25:21;0.60;84.40
78619;DHT22;67941;52.506;5.470;2024-01-16T01:27:52;0.60;84.40
78619;DHT22;67941;52.506;5.470;2024-01-16T01:30:20;0.60;84.30
78619;DHT22;67941;52.506;5.470;2024-01-16T01:32:50;0.60;84.20
78619;DHT22;67941;52.506;5.470;2024-01-16T01:35:19;0.60;84.20
78619;DHT22;67941;52.506;5.470;2024-01-16T01:37:48;0.60;84.30
78619;DHT22;67941;52.506;5.470;2024-01-16T01:40:17;0.60;84.30
78619;DHT22;67941;52.506;5.470;2024-01-16T01:42:48;0.60;84.30
78619;DHT22;67941;52.506;5.470;2024-01-16T01:45:17;0.60;84.30
78619;DHT22;67941;52.506;5.470;2024-01-16T01:47:47;0.60;84.20
78619;DHT22;67941;52.506;5.470;2024-01-16T01:50:16;0.60;84.30
78619;DHT22;67941;52.506;5.470;2024-01-16T01:52:45;0.60;84.20
78619;DHT22;67941;52.506;5.470;2024-01-16T01:55:14;0.60;84.20
78619;DHT22;67941;52.506;5.470;2024-01-16T01:57:43;0.60;84.20
78619;DHT22;67941;52.506;5.470;2024-01-16T02:00:15;0.60;84.20
78619;DHT22;67941;52.506;5.470;2024-01-16T02:02:45;0.60;84.20
78619;DHT22;67941;52.506;5.470;2024-01-16T02:05:15;0.60;84.20
78619;DHT22;67941;52.506;5.470;2024-01-16T02:07:44;0.60;84.10
78619;DHT22;67941;52.506;5.470;2024-01-16T02:10:13;0.60;84.20
78619;DHT22;67941;52.506;5.470;2024-01-16T02:12:42;0.60;84.20
78619;DHT22;67941;52.506;5.470;2024-01-16T02:15:11;0.60;84.20
78619;DHT22;67941;52.506;5.470;2024-01-16T02:17:42;0.60;84.30
78619;DHT22;67941;52.506;5.470;2024-01-16T02:20:11;0.60;84.20
78619;DHT22;67941;52.506;5.470;2024-01-16T02:22:44;0.60;84.20
78619;DHT22;67941;52.506;5.470;2024-01-16T02:25:17;0.60;84.10
78619;DHT22;67941;52.506;5.470;2024-01-16T02:27:46;0.60;84.20
78619;DHT22;67941;52.506;5.470;2024-01-16T02:30:15;0.60;84.20
78619;DHT22;67941;52.506;5.470;2024-01-16T02:32:44;0.60;84.20
78619;DHT22;67941;52.506;5.470;2024-01-16T02:35:13;0.60;84.20
78619;DHT22;67941;52.506;5.470;2024-01-16T02:37:44;0.60;84.10
78619;DHT22;67941;52.506;5.470;2024-01-16T02:40:16;0.60;84.10
78619;DHT22;67941;52.506;5.470;2024-01-16T02:42:45;0.60;84.10
78619;DHT22;67941;52.506;5.470;2024-01-16T02:45:13;0.60;84.10
78619;DHT22;67941;52.506;5.470;2024-01-16T02:47:43;0.60;84.00
78619;DHT22;67941;52.506;5.470;2024-01-16T02:50:12;0.60;84.00
78619;DHT22;67941;52.506;5.470;2024-01-16T02:52:41;0.60;84.00
78619;DHT22;67941;52.506;5.470;2024-01-16T02:55:10;0.60;84.00
78619;DHT22;67941;52.506;5.470;2024-01-16T02:57:41;0.60;84.00
78619;DHT22;67941;52.506;5.470;2024-01-16T03:00:11;0.60;84.00
78619;DHT22;67941;52.506;5.470;2024-01-16T03:02:40;0.60;84.10
78619;DHT22;67941;52.506;5.470;2024-01-16T03:07:53;0.60;84.20
78619;DHT22;67941;52.506;5.470;2024-01-16T03:10:22;0.60;84.30
78619;DHT22;67941;52.506;5.470;2024-01-16T03:12:54;0.60;84.40
78619;DHT22;67941;52.506;5.470;2024-01-16T03:15:23;0.60;84.40
78619;DHT22;67941;52.506;5.470;2024-01-16T03:17:52;0.60;84.30
78619;DHT22;67941;52.506;5.470;2024-01-16T03:20:21;0.60;84.30
78619;DHT22;67941;52.506;5.470;2024-01-16T03:22:50;0.60;84.30
78619;DHT22;67941;52.506;5.470;2024-01-16T03:25:20;0.60;84.30
78619;DHT22;67941;52.506;5.470;2024-01-16T03:27:49;0.60;84.30
78619;DHT22;67941;52.506;5.470;2024-01-16T03:30:39;0.60;84.40
78619;DHT22;67941;52.506;5.470;2024-01-16T03:33:08;0.70;84.60
78619;DHT22;67941;52.506;5.470;2024-01-16T03:35:37;0.80;84.60
78619;DHT22;67941;52.506;5.470;2024-01-16T03:38:06;0.80;84.60
78619;DHT22;67941;52.506;5.470;2024-01-16T03:40:35;0.80;84.50
78619;DHT22;67941;52.506;5.470;2024-01-16T03:43:04;0.80;84.40
78619;DHT22;67941;52.506;5.470;2024-01-16T03:45:33;0.80;84.30
78619;DHT22;67941;52.506;5.470;2024-01-16T03:48:05;0.80;84.40
78619;DHT22;67941;52.506;5.470;2024-01-16T03:50:34;0.80;84.40
78619;DHT22;67941;52.506;5.470;2024-01-16T03:53:03;0.80;84.30
78619;DHT22;67941;52.506;5.470;2024-01-16T03:55:32;0.80;84.20
78619;DHT22;67941;52.506;5.470;2024-01-16T03:58:01;0.80;84.20
78619;DHT22;67941;52.506;5.470;2024-01-16T04:00:30;0.80;84.10
78619;DHT22;67941;52.506;5.470;2024-01-16T04:02:59;0.80;84.10
78619;DHT22;67941;52.506;5.470;2024-01-16T04:05:30;0.80;84.00
78619;DHT22;67941;52.506;5.470;2024-01-16T04:07:59;0.80;84.00
78619;DHT22;67941;52.506;5.470;2024-01-16T04:10:28;0.80;84.00
78619;DHT22;67941;52.506;5.470;2024-01-16T04:13:00;0.80;83.90
78619;DHT22;67941;52.506;5.470;2024-01-16T04:15:29;0.80;83.90
78619;DHT22;67941;52.506;5.470;2024-01-16T04:17:59;0.70;83.90
78619;DHT22;67941;52.506;5.470;2024-01-16T04:20:31;0.70;83.90
78619;DHT22;67941;52.506;5.470;2024-01-16T04:23:00;0.70;83.90
78619;DHT22;67941;52.506;5.470;2024-01-16T04:25:29;0.70;83.90
78619;DHT22;67941;52.506;5.470;2024-01-16T04:27:58;0.70;84.10
78619;DHT22;67941;52.506;5.470;2024-01-16T04:30:27;0.70;84.20
78619;DHT22;67941;52.506;5.470;2024-01-16T04:32:56;0.80;84.40
78619;DHT22;67941;52.506;5.470;2024-01-16T04:35:25;0.80;84.70
78619;DHT22;67941;52.506;5.470;2024-01-16T04:37:56;0.80;84.80
78619;DHT22;67941;52.506;5.470;2024-01-16T04:40:25;0.90;84.90
78619;DHT22;67941;52.506;5.470;2024-01-16T04:42:54;1.00;85.00
78619;DHT22;67941;52.506;5.470;2024-01-16T04:45:23;1.00;85.00
78619;DHT22;67941;52.506;5.470;2024-01-16T04:47:52;1.00;85.00
78619;DHT22;67941;52.506;5.470;2024-01-16T04:50:20;1.00;85.00
78619;DHT22;67941;52.506;5.470;2024-01-16T04:52:59;1.00;84.90
78619;DHT22;67941;52.506;5.470;2024-01-16T04:55:29;1.00;84.90
78619;DHT22;67941;52.506;5.470;2024-01-16T04:57:58;1.00;85.00
78619;DHT22;67941;52.506;5.470;2024-01-16T05:00:26;1.00;85.00
78619;DHT22;67941;52.506;5.470;2024-01-16T05:02:55;1.00;85.00
78619;DHT22;67941;52.506;5.470;2024-01-16T05:05:24;1.00;85.00
78619;DHT22;67941;52.506;5.470;2024-01-16T05:07:53;1.00;85.00
78619;DHT22;67941;52.506;5.470;2024-01-16T05:10:25;1.00;85.00
78619;DHT22;67941;52.506;5.470;2024-01-16T05:12:53;1.00;85.00
78619;DHT22;67941;52.506;5.470;2024-01-16T05:15:22;1.00;85.00
78619;DHT22;67941;52.506;5.470;2024-01-16T05:17:51;1.00;85.10
78619;DHT22;67941;52.506;5.470;2024-01-16T05:20:20;1.00;85.10
78619;DHT22;67941;52.506;5.470;2024-01-16T05:22:50;1.00;85.10
78619;DHT22;67941;52.506;5.470;2024-01-16T05:25:19;1.00;85.10
78619;DHT22;67941;52.506;5.470;2024-01-16T05:27:50;1.00;85.10
78619;DHT22;67941;52.506;5.470;2024-01-16T05:30:19;1.00;85.20
78619;DHT22;67941;52.506;5.470;2024-01-16T05:32:48;1.00;85.10
78619;DHT22;67941;52.506;5.470;2024-01-16T05:35:18;1.00;85.10
78619;DHT22;67941;52.506;5.470;2024-01-16T05:37:46;0.90;85.10
78619;DHT22;67941;52.506;5.470;2024-01-16T05:40:15;0.80;85.20
78619;DHT22;67941;52.506;5.470;2024-01-16T05:42:44;0.80;85.30
78619;DHT22;67941;52.506;5.470;2024-01-16T05:45:16;0.80;85.30
78619;DHT22;67941;52.506;5.470;2024-01-16T05:47:45;0.80;85.30
78619;DHT22;67941;52.506;5.470;2024-01-16T05:50:14;0.80;85.40
78619;DHT22;67941;52.506;5.470;2024-01-16T05:52:44;0.80;85.50
78619;DHT22;67941;52.506;5.470;2024-01-16T05:55:13;0.80;85.50
78619;DHT22;67941;52.506;5.470;2024-01-16T05:57:42;0.80;85.50
78619;DHT22;67941;52.506;5.470;2024-01-16T06:00:12;0.70;85.60
78619;DHT22;67941;52.506;5.470;2024-01-16T06:02:46;0.70;85.60
78619;DHT22;67941;52.506;5.470;2024-01-16T06:05:15;0.70;85.70
78619;DHT22;67941;52.506;5.470;2024-01-16T06:07:44;0.70;85.70
78619;DHT22;67941;52.506;5.470;2024-01-16T06:10:13;0.70;85.70
78619;DHT22;67941;52.506;5.470;2024-01-16T06:12:42;0.70;85.80
78619;DHT22;67941;52.506;5.470;2024-01-16T06:15:11;0.70;85.80
78619;DHT22;67941;52.506;5.470;2024-01-16T06:17:40;0.70;85.90
78619;DHT22;67941;52.506;5.470;2024-01-16T06:20:12;0.70;86.00
78619;DHT22;67941;52.506;5.470;2024-01-16T06:22:41;0.80;86.00
78619;DHT22;67941;52.506;5.470;2024-01-16T06:25:10;0.80;86.00
78619;DHT22;67941;52.506;5.470;2024-01-16T06:27:40;0.80;86.00
78619;DHT22;67941;52.506;5.470;2024-01-16T06:30:11;0.80;86.00
78619;DHT22;67941;52.506;5.470;2024-01-16T06:32:39;0.80;86.00
78619;DHT22;67941;52.506;5.470;2024-01-16T06:35:12;0.90;86.00
78619;DHT22;67941;52.506;5.470;2024-01-16T06:37:42;1.00;85.90
78619;DHT22;67941;52.506;5.470;2024-01-16T06:40:11;1.00;85.90
78619;DHT22;67941;52.506;5.470;2024-01-16T06:42:40;1.00;85.80
78619;DHT22;67941;52.506;5.470;2024-01-16T06:45:09;1.00;85.70
78619;DHT22;67941;52.506;5.470;2024-01-16T06:47:38;1.00;85.70
78619;DHT22;67941;52.506;5.470;2024-01-16T06:50:11;1.00;85.70
78619;DHT22;67941;52.506;5.470;2024-01-16T06:52:40;1.00;85.60
78619;DHT22;67941;52.506;5.470;2024-01-16T06:55:08;1.00;85.60
78619;DHT22;67941;52.506;5.470;2024-01-16T06:57:37;1.00;85.60
78619;DHT22;67941;52.506;5.470;2024-01-16T07:00:07;1.10;85.50
78619;DHT22;67941;52.506;5.470;2024-01-16T07:02:36;1.10;85.50
78619;DHT22;67941;52.506;5.470;2024-01-16T07:05:05;1.10;85.40
78619;DHT22;67941;52.506;5.470;2024-01-16T07:07:39;1.10;85.40
78619;DHT22;67941;52.506;5.470;2024-01-16T07:10:08;1.10;85.30
78619;DHT22;67941;52.506;5.470;2024-01-16T07:12:43;1.10;85.30
78619;DHT22;67941;52.506;5.470;2024-01-16T07:15:13;1.10;85.30
78619;DHT22;67941;52.506;5.470;2024-01-16T07:17:42;1.10;85.20
78619;DHT22;67941;52.506;5.470;2024-01-16T07:20:11;1.10;85.20
78619;DHT22;67941;52.506;5.470;2024-01-16T07:22:43;1.10;85.20
78619;DHT22;67941;52.506;5.470;2024-01-16T07:25:12;1.10;85.20
78619;DHT22;67941;52.506;5.470;2024-01-16T07:27:41;1.10;85.10
78619;DHT22;67941;52.506;5.470;2024-01-16T07:30:14;1.20;85.10
78619;DHT22;67941;52.506;5.470;2024-01-16T07:32:43;1.10;85.10
78619;DHT22;67941;52.506;5.470;2024-01-16T07:35:12;1.10;85.00
78619;DHT22;67941;52.506;5.470;2024-01-16T07:37:44;1.10;85.00
78619;DHT22;67941;52.506;5.470;2024-01-16T07:40:13;1.10;85.00
78619;DHT22;67941;52.506;5.470;2024-01-16T07:42:42;1.10;85.00
78619;DHT22;67941;52.506;5.470;2024-01-16T07:45:12;1.10;85.00
78619;DHT22;67941;52.506;5.470;2024-01-16T07:47:40;1.10;85.00
78619;DHT22;67941;52.506;5.470;2024-01-16T07:50:10;1.00;84.90
78619;DHT22;67941;52.506;5.470;2024-01-16T07:52:39;1.00;84.90
78619;DHT22;67941;52.506;5.470;2024-01-16T07:55:10;1.00;84.90
78619;DHT22;67941;52.506;5.470;2024-01-16T07:57:39;1.00;85.00
78619;DHT22;67941;52.506;5.470;2024-01-16T08:00:09;1.00;85.10
78619;DHT22;67941;52.506;5.470;2024-01-16T08:02:39;1.00;85.20
78619;DHT22;67941;52.506;5.470;2024-01-16T08:05:08;1.00;85.40
78619;DHT22;67941;52.506;5.470;2024-01-16T08:07:38;1.00;85.50
78619;DHT22;67941;52.506;5.470;2024-01-16T08:10:11;1.00;85.50
78619;DHT22;67941;52.506;5.470;2024-01-16T08:12:40;1.00;85.60
78619;DHT22;67941;52.506;5.470;2024-01-16T08:15:09;1.10;85.50
78619;DHT22;67941;52.506;5.470;2024-01-16T08:17:38;1.20;85.50
78619;DHT22;67941;52.506;5.470;2024-01-16T08:20:09;1.20;85.50
78619;DHT22;67941;52.506;5.470;2024-01-16T08:22:38;1.20;85.40
78619;DHT22;67941;52.506;5.470;2024-01-16T08:25:07;1.20;85.40
78619;DHT22;67941;52.506;5.470;2024-01-16T08:27:39;1.20;85.30
78619;DHT22;67941;52.506;5.470;2024-01-16T08:30:10;1.20;85.30
78619;DHT22;67941;52.506;5.470;2024-01-16T08:32:39;1.30;85.30
78619;DHT22;67941;52.506;5.470;2024-01-16T08:35:09;1.40;85.30
78619;DHT22;67941;52.506;5.470;2024-01-16T08:37:38;1.40;85.30
78619;DHT22;67941;52.506;5.470;2024-01-16T08:40:08;1.40;85.30
78619;DHT22;67941;52.506;5.470;2024-01-16T08:42:40;1.40;85.30
78619;DHT22;67941;52.506;5.470;2024-01-16T08:45:09;1.40;85.20
78619;DHT22;67941;52.506;5.470;2024-01-16T08:47:57;1.40;85.20
78619;DHT22;67941;52.506;5.470;2024-01-16T08:50:26;1.40;85.20
78619;DHT22;67941;52.506;5.470;2024-01-16T08:52:55;1.40;85.30
78619;DHT22;67941;52.506;5.470;2024-01-16T08:55:24;1.40;85.30
78619;DHT22;67941;52.506;5.470;2024-01-16T08:57:55;1.40;85.30
78619;DHT22;67941;52.506;5.470;2024-01-16T09:00:24;1.40;85.20
78619;DHT22;67941;52.506;5.470;2024-01-16T09:02:53;1.40;85.20
78619;DHT22;67941;52.506;5.470;2024-01-16T09:05:23;1.40;85.30
78619;DHT22;67941;52.506;5.470;2024-01-16T09:07:54;1.50;85.40
78619;DHT22;67941;52.506;5.470;2024-01-16T09:10:23;1.50;85.50
78619;DHT22;67941;52.506;5.470;2024-01-16T09:12:52;1.50;85.60
78619;DHT22;67941;52.506;5.470;2024-01-16T09:15:23;1.60;85.70
78619;DHT22;67941;52.506;5.470;2024-01-16T09:17:52;1.60;85.70
78619;DHT22;67941;52.506;5.470;2024-01-16T09:20:22;1.70;85.70
78619;DHT22;67941;52.506;5.470;2024-01-16T09:22:51;1.70;85.70
78619;DHT22;67941;52.506;5.470;2024-01-16T09:25:20;1.70;85.70
78619;DHT22;67941;52.506;5.470;2024-01-16T09:27:50;1.80;85.80
78619;DHT22;67941;52.506;5.470;2024-01-16T09:30:24;1.80;85.80
78619;DHT22;67941;52.506;5.470;2024-01-16T09:32:53;1.80;85.90
78619;DHT22;67941;52.506;5.470;2024-01-16T09:35:22;1.90;85.90
78619;DHT22;67941;52.506;5.470;2024-01-16T09:37:50;1.90;86.00
78619;DHT22;67941;52.506;5.470;2024-01-16T09:40:21;2.00;86.10
78619;DHT22;67941;52.506;5.470;2024-01-16T09:42:50;2.00;86.20
78619;DHT22;67941;52.506;5.470;2024-01-16T09:45:20;2.00;86.20
78619;DHT22;67941;52.506;5.470;2024-01-16T09:47:52;2.10;86.30
78619;DHT22;67941;52.506;5.470;2024-01-16T09:50:22;2.10;86.30
78619;DHT22;67941;52.506;5.470;2024-01-16T09:52:51;2.10;86.40
78619;DHT22;67941;52.506;5.470;2024-01-16T09:55:20;2.20;86.50
78619;DHT22;67941;52.506;5.470;2024-01-16T09:57:52;2.20;86.60
78619;DHT22;67941;52.506;5.470;2024-01-16T10:00:22;2.20;86.80
78619;DHT22;67941;52.506;5.470;2024-01-16T10:02:55;2.30;86.80
78619;DHT22;67941;52.506;5.470;2024-01-16T10:05:24;2.30;87.00
78619;DHT22;67941;52.506;5.470;2024-01-16T10:07:54;2.40;87.00
78619;DHT22;67941;52.506;5.470;2024-01-16T10:10:23;2.40;87.00
78619;DHT22;67941;52.506;5.470;2024-01-16T10:12:55;2.50;87.20
78619;DHT22;67941;52.506;5.470;2024-01-16T10:15:25;2.50;87.20
78619;DHT22;67941;52.506;5.470;2024-01-16T10:17:56;2.50;87.20
78619;DHT22;67941;52.506;5.470;2024-01-16T10:20:35;2.60;87.20
78619;DHT22;67941;52.506;5.470;2024-01-16T10:23:05;2.60;87.30
78619;DHT22;67941;52.506;5.470;2024-01-16T10:25:35;2.70;87.30
78619;DHT22;67941;52.506;5.470;2024-01-16T10:28:05;2.70;87.40
78619;DHT22;67941;52.506;5.470;2024-01-16T10:30:37;2.70;87.50
78619;DHT22;67941;52.506;5.470;2024-01-16T10:33:18;2.80;87.60
78619;DHT22;67941;52.506;5.470;2024-01-16T10:36:11;2.80;87.70
78619;DHT22;67941;52.506;5.470;2024-01-16T10:38:43;2.80;87.70
78619;DHT22;67941;52.506;5.470;2024-01-16T10:41:13;2.90;87.80
78619;DHT22;67941;52.506;5.470;2024-01-16T10:43:43;2.90;87.90
78619;DHT22;67941;52.506;5.470;2024-01-16T10:46:15;3.00;87.90
78619;DHT22;67941;52.506;5.470;2024-01-16T10:49:02;3.00;87.90
78619;DHT22;67941;52.506;5.470;2024-01-16T10:51:33;3.10;88.00
78619;DHT22;67941;52.506;5.470;2024-01-16T10:54:03;3.10;88.10
78619;DHT22;67941;52.506;5.470;2024-01-16T10:56:38;3.10;88.20
78619;DHT22;67941;52.506;5.470;2024-01-16T10:59:15;3.20;88.20
78619;DHT22;67941;52.506;5.470;2024-01-16T11:01:51;3.20;88.20
78619;DHT22;67941;52.506;5.470;2024-01-16T11:04:24;3.20;88.20
78619;DHT22;67941;52.506;5.470;2024-01-16T11:06:54;3.20;88.20
78619;DHT22;67941;52.506;5.470;2024-01-16T11:09:24;3.10;88.20
78619;DHT22;67941;52.506;5.470;2024-01-16T11:11:54;3.10;88.20
78619;DHT22;67941;52.506;5.470;2024-01-16T11:14:25;3.10;88.10
78619;DHT22;67941;52.506;5.470;2024-01-16T11:16:56;3.10;88.10
78619;DHT22;67941;52.506;5.470;2024-01-16T11:19:30;3.10;88.10
78619;DHT22;67941;52.506;5.470;2024-01-16T11:22:01;3.10;88.20
78619;DHT22;67941;52.506;5.470;2024-01-16T11:24:31;3.10;88.10
78619;DHT22;67941;52.506;5.470;2024-01-16T11:27:00;3.10;88.10
78619;DHT22;67941;52.506;5.470;2024-01-16T11:29:36;3.10;88.10
78619;DHT22;67941;52.506;5.470;2024-01-16T11:32:06;3.10;88.10
78619;DHT22;67941;52.506;5.470;2024-01-16T11:34:57;3.10;88.10
78619;DHT22;67941;52.506;5.470;2024-01-16T11:37:30;3.00;88.00
78619;DHT22;67941;52.506;5.470;2024-01-16T11:40:24;3.00;88.00
78619;DHT22;67941;52.506;5.470;2024-01-16T11:42:54;2.90;87.80
78619;DHT22;67941;52.506;5.470;2024-01-16T11:45:48;2.90;87.80
78619;DHT22;67941;52.506;5.470;2024-01-16T11:48:18;2.80;87.70
78619;DHT22;67941;52.506;5.470;2024-01-16T11:50:51;2.80;87.70
78619;DHT22;67941;52.506;5.470;2024-01-16T11:53:37;2.80;87.60
78619;DHT22;67941;52.506;5.470;2024-01-16T11:59:14;2.80;87.60
78619;DHT22;67941;52.506;5.470;2024-01-16T12:01:50;2.70;87.70
78619;DHT22;67941;52.506;5.470;2024-01-16T12:04:21;2.70;87.70
78619;DHT22;67941;52.506;5.470;2024-01-16T12:07:08;2.80;87.80
78619;DHT22;67941;52.506;5.470;2024-01-16T12:09:37;2.80;87.80
78619;DHT22;67941;52.506;5.470;2024-01-16T12:12:07;2.90;88.00
78619;DHT22;67941;52.506;5.470;2024-01-16T12:14:38;3.00;88.10
78619;DHT22;67941;52.506;5.470;2024-01-16T12:17:11;3.10;88.20
78619;DHT22;67941;52.506;5.470;2024-01-16T12:19:40;3.10;88.20
78619;DHT22;67941;52.506;5.470;2024-01-16T12:22:14;3.10;88.20
78619;DHT22;67941;52.506;5.470;2024-01-16T12:24:43;3.10;88.20
78619;DHT22;67941;52.506;5.470;2024-01-16T12:27:13;3.10;88.20
78619;DHT22;67941;52.506;5.470;2024-01-16T12:29:42;3.10;88.20
78619;DHT22;67941;52.506;5.470;2024-01-16T12:32:12;3.10;88.10
78619;DHT22;67941;52.506;5.470;2024-01-16T12:34:47;3.10;88.00
78619;DHT22;67941;52.506;5.470;2024-01-16T12:37:19;3.10;88.00
78619;DHT22;67941;52.506;5.470;2024-01-16T12:39:48;3.00;87.90
78619;DHT22;67941;52.506;5.470;2024-01-16T12:42:18;3.00;87.80
78619;DHT22;67941;52.506;5.470;2024-01-16T12:44:47;3.00;87.80
78619;DHT22;67941;52.506;5.470;2024-01-16T12:47:17;3.00;87.80
78619;DHT22;67941;52.506;5.470;2024-01-16T12:49:52;2.90;87.80
78619;DHT22;67941;52.506;5.470;2024-01-16T12:52:24;2.90;87.80
78619;DHT22;67941;52.506;5.470;2024-01-16T12:54:59;2.90;87.70
78619;DHT22;67941;52.506;5.470;2024-01-16T12:57:30;2.90;87.60
78619;DHT22;67941;52.506;5.470;2024-01-16T13:00:00;2.80;87.50
78619;DHT22;67941;52.506;5.470;2024-01-16T13:02:30;2.80;87.30
78619;DHT22;67941;52.506;5.470;2024-01-16T13:05:00;2.70;87.10
78619;DHT22;67941;52.506;5.470;2024-01-16T13:07:33;2.60;87.00
78619;DHT22;67941;52.506;5.470;2024-01-16T13:10:09;2.50;87.00
78619;DHT22;67941;52.506;5.470;2024-01-16T13:12:38;2.50;87.00
78619;DHT22;67941;52.506;5.470;2024-01-16T13:15:08;2.50;87.00
78619;DHT22;67941;52.506;5.470;2024-01-16T13:17:42;2.50;87.10
78619;DHT22;67941;52.506;5.470;2024-01-16T13:20:12;2.60;87.30
78619;DHT22;67941;52.506;5.470;2024-01-16T13:22:44;2.70;87.60
78619;DHT22;67941;52.506;5.470;2024-01-16T13:25:14;2.90;87.80
78619;DHT22;67941;52.506;5.470;2024-01-16T13:27:43;3.00;88.00
78619;DHT22;67941;52.506;5.470;2024-01-16T13:30:13;3.10;88.20
78619;DHT22;67941;52.506;5.470;2024-01-16T13:32:43;3.30;88.30
78619;DHT22;67941;52.506;5.470;2024-01-16T13:35:13;3.40;88.40
78619;DHT22;67941;52.506;5.470;2024-01-16T13:37:45;3.50;88.50
78619;DHT22;67941;52.506;5.470;2024-01-16T13:40:14;3.50;88.50
78619;DHT22;67941;52.506;5.470;2024-01-16T13:42:45;3.60;88.50
78619;DHT22;67941;52.506;5.470;2024-01-16T13:45:14;3.60;88.60
78619;DHT22;67941;52.506;5.470;2024-01-16T13:47:44;3.70;88.60
78619;DHT22;67941;52.506;5.470;2024-01-16T13:50:13;3.80;88.60
78619;DHT22;67941;52.506;5.470;2024-01-16T13:52:46;3.90;88.70
78619;DHT22;67941;52.506;5.470;2024-01-16T13:55:16;4.00;88.70
78619;DHT22;67941;52.506;5.470;2024-01-16T13:57:45;4.00;88.70
78619;DHT22;67941;52.506;5.470;2024-01-16T14:00:15;4.00;88.70
78619;DHT22;67941;52.506;5.470;2024-01-16T14:02:45;4.00;88.70
78619;DHT22;67941;52.506;5.470;2024-01-16T14:05:16;3.90;88.60
78619;DHT22;67941;52.506;5.470;2024-01-16T14:07:50;3.90;88.50
78619;DHT22;67941;52.506;5.470;2024-01-16T14:10:21;3.70;88.20
78619;DHT22;67941;52.506;5.470;2024-01-16T14:12:51;3.50;88.00
78619;DHT22;67941;52.506;5.470;2024-01-16T14:15:21;3.40;87.90
78619;DHT22;67941;52.506;5.470;2024-01-16T14:17:53;3.30;87.70
78619;DHT22;67941;52.506;5.470;2024-01-16T14:20:23;3.30;87.60
78619;DHT22;67941;52.506;5.470;2024-01-16T14:22:55;3.10;87.50
78619;DHT22;67941;52.506;5.470;2024-01-16T14:25:24;3.10;87.40
78619;DHT22;67941;52.506;5.470;2024-01-16T14:27:57;3.00;87.30
78619;DHT22;67941;52.506;5.470;2024-01-16T14:30:29;3.00;87.10
78619;DHT22;67941;52.506;5.470;2024-01-16T14:32:59;2.90;87.00
78619;DHT22;67941;52.506;5.470;2024-01-16T14:35:28;2.80;86.90
78619;DHT22;67941;52.506;5.470;2024-01-16T14:37:59;2.80;86.80
78619;DHT22;67941;52.506;5.470;2024-01-16T14:40:30;2.70;86.80
78619;DHT22;67941;52.506;5.470;2024-01-16T14:42:59;2.70;86.70
78619;DHT22;67941;52.506;5.470;2024-01-16T14:45:30;2.60;86.60
78619;DHT22;67941;52.506;5.470;2024-01-16T14:48:15;2.50;86.50
78619;DHT22;67941;52.506;5.470;2024-01-16T14:50:44;2.50;86.40
78619;DHT22;67941;52.506;5.470;2024-01-16T14:53:18;2.50;86.30
78619;DHT22;67941;52.506;5.470;2024-01-16T14:55:47;2.40;86.10
78619;DHT22;67941;52.506;5.470;2024-01-16T14:58:17;2.40;86.00
78619;DHT22;67941;52.506;5.470;2024-01-16T15:00:49;2.30;85.80
78619;DHT22;67941;52.506;5.470;2024-01-16T15:03:19;2.30;85.70
78619;DHT22;67941;52.506;5.470;2024-01-16T15:05:50;2.20;85.60
78619;DHT22;67941;52.506;5.470;2024-01-16T15:08:24;2.20;85.50
78619;DHT22;67941;52.506;5.470;2024-01-16T15:10:54;2.10;85.40
78619;DHT22;67941;52.506;5.470;2024-01-16T15:13:25;2.10;85.30
78619;DHT22;67941;52.506;5.470;2024-01-16T15:15:57;2.00;85.30
78619;DHT22;67941;52.506;5.470;2024-01-16T15:18:26;2.00;85.20
78619;DHT22;67941;52.506;5.470;2024-01-16T15:20:55;1.90;85.10
78619;DHT22;67941;52.506;5.470;2024-01-16T15:23:28;1.90;85.10
78619;DHT22;67941;52.506;5.470;2024-01-16T15:25:57;1.80;85.00
78619;DHT22;67941;52.506;5.470;2024-01-16T15:28:29;1.80;85.00
78619;DHT22;67941;52.506;5.470;2024-01-16T15:30:58;1.80;84.90
78619;DHT22;67941;52.506;5.470;2024-01-16T15:33:32;1.80;85.00
78619;DHT22;67941;52.506;5.470;2024-01-16T15:36:03;1.70;85.10
78619;DHT22;67941;52.506;5.470;2024-01-16T15:38:35;1.80;85.20
78619;DHT22;67941;52.506;5.470;2024-01-16T15:41:05;1.70;85.00
78619;DHT22;67941;52.506;5.470;2024-01-16T15:43:34;1.70;85.00
78619;DHT22;67941;52.506;5.470;2024-01-16T15:46:04;1.70;85.10
78619;DHT22;67941;52.506;5.470;2024-01-16T15:48:33;1.70;85.00
78619;DHT22;67941;52.506;5.470;2024-01-16T15:51:02;1.70;84.90
78619;DHT22;67941;52.506;5.470;2024-01-16T15:53:35;1.60;84.80
78619;DHT22;67941;52.506;5.470;2024-01-16T15:56:04;1.60;84.60
78619;DHT22;67941;52.506;5.470;2024-01-16T15:58:34;1.60;84.40
78619;DHT22;67941;52.506;5.470;2024-01-16T16:01:03;1.50;84.30
78619;DHT22;67941;52.506;5.470;2024-01-16T16:03:37;1.50;84.10
78619;DHT22;67941;52.506;5.470;2024-01-16T16:06:06;1.40;84.00
78619;DHT22;67941;52.506;5.470;2024-01-16T16:08:38;1.40;83.90
78619;DHT22;67941;52.506;5.470;2024-01-16T16:11:07;1.40;83.80